Time;durP1;ratioP1;P1;durP2;ratioP2;P2;SDS_P1;SDS_P2;PMS_P1;PMS_P2;Temp;Humidity;BMP_temperature;BMP_pressure;BME280_temperature;BME280_humidity;BME280_pressure;Samples;Min_cycle;Max_cycle;Signal;HPM_P1;HPM_P2
2021/08/13 00:00:54;;;;;;;6.85;5.13;;;;;;;23.87;58.06;97089.00;5043302;28;20185;-63
2021/08/13 00:03:20;;;;;;;7.55;5.32;;;;;;;23.84;58.63;97100.31;5035017;28;20186;-63
2021/08/13 00:05:47;;;;;;;7.93;5.32;;;;;;;23.29;60.29;97097.00;5033859;28;20193;-62
2021/08/13 00:08:12;;;;;;;10.00;5.38;;;;;;;23.37;59.93;97096.25;5044494;28;20186;-63
2021/08/13 00:10:38;;;;;;;6.50;5.80;;;;;;;23.51;59.62;97086.38;5040138;28;20264;-62
2021/08/13 00:13:04;;;;;;;7.95;5.38;;;;;;;23.72;58.99;97094.72;5038551;28;20233;-63
2021/08/13 00:15:29;;;;;;;9.23;5.93;;;;;;;23.56;59.92;97097.75;5043367;28;20544;-63
2021/08/13 00:17:56;;;;;;;8.75;6.45;;;;;;;23.53;60.07;97101.00;5034715;28;20198;-63
2021/08/13 00:20:21;;;;;;;8.73;6.25;;;;;;;23.48;60.48;97090.41;5041942;28;20190;-63
2021/08/13 00:22:48;;;;;;;6.70;5.70;;;;;;;23.45;60.35;97092.88;5042020;28;20538;-63
2021/08/13 00:25:14;;;;;;;8.82;6.05;;;;;;;23.49;60.14;97093.91;5035293;28;20186;-69
2021/08/13 00:27:39;;;;;;;7.43;5.97;;;;;;;23.45;60.08;97098.25;5031133;28;20178;-63
2021/08/13 00:30:06;;;;;;;7.15;5.72;;;;;;;23.28;60.75;97098.88;5039942;28;20319;-63
2021/08/13 00:32:31;;;;;;;7.03;6.25;;;;;;;23.19;61.65;97097.97;5033110;28;20576;-63
2021/08/13 00:34:57;;;;;;;10.88;6.07;;;;;;;23.14;61.59;97098.09;5032592;28;20178;-63
2021/08/13 00:37:22;;;;;;;9.75;5.95;;;;;;;23.27;60.98;97094.59;5032909;28;20347;-63
2021/08/13 00:39:48;;;;;;;10.20;5.97;;;;;;;23.23;61.58;97085.59;5036007;28;20305;-63
2021/08/13 00:42:13;;;;;;;10.35;7.32;;;;;;;23.06;61.78;97086.22;5038986;28;20189;-63
2021/08/13 00:44:39;;;;;;;8.65;6.47;;;;;;;23.04;61.68;97096.41;5033194;28;20305;-63
2021/08/13 00:47:04;;;;;;;7.30;5.90;;;;;;;23.01;61.81;97098.91;5033074;28;20186;-63
2021/08/13 00:49:30;;;;;;;7.75;5.50;;;;;;;22.90;62.21;97098.31;5033644;28;20195;-64
2021/08/13 00:51:56;;;;;;;7.55;5.68;;;;;;;22.86;62.28;97099.97;5044414;28;20556;-64
2021/08/13 00:54:22;;;;;;;8.40;5.68;;;;;;;22.83;62.16;97092.56;5033884;28;20187;-63
2021/08/13 00:56:48;;;;;;;5.60;5.00;;;;;;;22.85;61.86;97095.72;5034260;28;20190;-64
2021/08/13 00:59:13;;;;;;;6.32;5.18;;;;;;;22.82;62.26;97093.66;5034520;28;20214;-69
2021/08/13 01:01:39;;;;;;;6.55;5.75;;;;;;;22.88;62.08;97092.47;5046235;28;20187;-66
2021/08/13 01:04:05;;;;;;;9.98;5.00;;;;;;;22.85;62.04;97077.00;5045961;28;20187;-63
2021/08/13 01:06:30;;;;;;;5.63;5.03;;;;;;;22.82;62.10;97095.53;5040638;28;20263;-63
2021/08/13 01:08:56;;;;;;;6.50;5.28;;;;;;;22.69;62.55;97095.19;5042580;28;20189;-63
2021/08/13 01:11:54;;;;;;;7.93;4.95;;;;;;;22.73;62.13;97087.44;5034442;28;20632;-63
2021/08/13 01:14:47;;;;;;;7.05;5.20;;;;;;;22.62;62.34;97092.16;5060564;28;20191;-64
2021/08/13 01:17:15;;;;;;;6.93;5.05;;;;;;;22.75;62.08;97091.38;5040911;28;20549;-63
2021/08/13 01:19:56;;;;;;;6.80;5.70;;;;;;;22.66;63.11;97090.47;5050146;28;20190;-64
2021/08/13 01:22:33;;;;;;;7.63;6.13;;;;;;;22.69;63.03;97094.41;5033627;28;20606;-63
2021/08/13 01:25:03;;;;;;;7.00;5.47;;;;;;;22.56;63.50;97095.19;5046831;28;20181;-63
2021/08/13 01:27:37;;;;;;;6.57;5.80;;;;;;;22.49;63.58;97094.78;5043398;28;20255;-65
2021/08/13 01:30:10;;;;;;;8.43;5.65;;;;;;;22.41;63.62;97104.28;5024015;28;20174;-63
2021/08/13 01:32:48;;;;;;;6.13;5.45;;;;;;;22.53;63.78;97107.25;5042752;28;20182;-63
2021/08/13 01:35:36;;;;;;;6.38;5.32;;;;;;;22.52;63.64;97107.53;5044835;28;20175;-65
2021/08/13 01:38:07;;;;;;;9.45;5.20;;;;;;;22.44;64.01;97103.69;5038149;28;20209;-62
2021/08/13 01:40:33;;;;;;;6.72;5.57;;;;;;;22.41;64.04;97112.28;5044490;28;20237;-65
2021/08/13 01:42:59;;;;;;;7.28;5.85;;;;;;;22.46;63.66;97111.44;5048871;28;20202;-66
2021/08/13 01:45:28;;;;;;;7.82;5.30;;;;;;;22.40;63.33;97122.16;5048876;28;20186;-64
2021/08/13 01:47:55;;;;;;;5.63;4.97;;;;;;;22.47;63.25;97110.31;5044502;28;20178;-64
2021/08/13 01:50:21;;;;;;;8.75;5.70;;;;;;;22.49;63.44;97122.31;5044731;28;20294;-64
2021/08/13 01:52:50;;;;;;;7.50;5.88;;;;;;;22.31;64.21;97118.59;5041979;28;20277;-65
2021/08/13 01:55:16;;;;;;;6.85;5.60;;;;;;;22.37;63.82;97127.31;5039414;28;20197;-70
2021/08/13 01:57:43;;;;;;;7.00;5.45;;;;;;;22.34;63.66;97115.38;5034892;28;20214;-64
2021/08/13 02:00:09;;;;;;;7.75;5.70;;;;;;;22.35;64.01;97110.78;5044181;28;20174;-64
2021/08/13 02:02:35;;;;;;;8.50;5.43;;;;;;;22.28;63.51;97110.41;5041438;28;20217;-64
2021/08/13 02:05:03;;;;;;;7.20;5.25;;;;;;;22.46;62.13;97114.09;5040443;28;20187;-64
2021/08/13 02:07:31;;;;;;;7.95;5.28;;;;;;;22.49;62.12;97116.16;5040758;28;20195;-65
2021/08/13 02:09:56;;;;;;;6.40;5.10;;;;;;;22.45;62.03;97120.53;5029264;28;20533;-65
2021/08/13 02:12:22;;;;;;;5.75;4.95;;;;;;;22.46;62.18;97122.09;5045153;28;20274;-64
2021/08/13 02:14:48;;;;;;;6.15;4.97;;;;;;;22.49;61.79;97110.81;5041599;28;20236;-64
2021/08/13 02:17:19;;;;;;;4.90;4.40;;;;;;;22.52;61.96;97108.34;5032302;28;20182;-67
2021/08/13 02:19:57;;;;;;;8.25;5.35;;;;;;;22.70;60.66;97109.34;5035394;28;20641;-64
2021/08/13 02:22:23;;;;;;;5.80;5.00;;;;;;;22.83;59.86;97105.94;5043464;28;20185;-65
2021/08/13 02:24:48;;;;;;;7.75;5.18;;;;;;;22.68;60.72;97106.97;5041813;28;20190;-64
2021/08/13 02:27:14;;;;;;;9.27;5.30;;;;;;;22.91;60.03;97105.22;5041035;28;20193;-70
2021/08/13 02:29:40;;;;;;;5.47;4.97;;;;;;;22.86;60.49;97102.66;5048456;28;20208;-64
2021/08/13 02:32:06;;;;;;;7.90;5.30;;;;;;;22.87;60.05;97101.56;5034797;28;20205;-64
2021/08/13 02:34:32;;;;;;;6.28;5.25;;;;;;;22.95;60.40;97095.53;5040458;28;20703;-64
2021/08/13 02:37:05;;;;;;;5.82;5.22;;;;;;;22.90;61.04;97089.50;5047212;28;20193;-64
2021/08/13 02:39:51;;;;;;;5.75;4.95;;;;;;;22.68;61.95;97092.84;5045402;28;20310;-63
2021/08/13 02:42:25;;;;;;;9.68;5.20;;;;;;;22.85;61.43;97082.34;5038172;28;20645;-70
2021/08/13 02:44:56;;;;;;;9.40;5.40;;;;;;;22.78;62.04;97085.44;5039769;28;20184;-64
2021/08/13 02:47:25;;;;;;;8.10;5.75;;;;;;;22.65;62.26;97091.53;5040537;28;20181;-65
2021/08/13 02:49:55;;;;;;;6.32;5.38;;;;;;;22.74;62.23;97089.78;5048242;28;20260;-64
2021/08/13 02:52:27;;;;;;;6.72;5.20;;;;;;;22.79;62.17;97089.69;5032274;28;20175;-65
2021/08/13 02:54:56;;;;;;;7.20;5.32;;;;;;;22.76;62.41;97084.94;5035519;28;20527;-64
2021/08/13 02:57:25;;;;;;;6.72;5.40;;;;;;;22.86;61.88;97075.94;5031875;28;20218;-65
2021/08/13 02:59:51;;;;;;;7.82;6.10;;;;;;;22.86;62.21;97081.28;5033310;28;20193;-64
2021/08/13 03:02:20;;;;;;;7.20;5.30;;;;;;;22.83;62.60;97089.91;5046345;28;20651;-70
2021/08/13 03:04:49;;;;;;;6.20;5.60;;;;;;;23.01;62.34;97091.69;5044814;28;20186;-64
2021/08/13 03:07:15;;;;;;;6.55;5.80;;;;;;;22.96;62.41;97091.00;5045276;28;20696;-70
2021/08/13 03:09:41;;;;;;;6.53;5.57;;;;;;;23.01;62.52;97093.56;5035211;28;20186;-64
2021/08/13 03:12:09;;;;;;;7.72;5.93;;;;;;;22.92;62.92;97092.66;5038613;28;20179;-65
2021/08/13 03:14:34;;;;;;;6.60;5.85;;;;;;;23.00;62.70;97094.66;5033911;28;20183;-64
2021/08/13 03:17:00;;;;;;;6.38;5.78;;;;;;;22.82;63.09;97092.88;5034054;28;20175;-64
2021/08/13 03:19:26;;;;;;;6.72;5.95;;;;;;;22.80;63.45;97101.97;5032574;28;20179;-64
2021/08/13 03:21:52;;;;;;;7.97;5.75;;;;;;;22.92;63.42;97108.69;5046156;28;20281;-64
2021/08/13 03:24:19;;;;;;;7.78;5.75;;;;;;;22.82;63.52;97098.22;5038945;28;20261;-68
2021/08/13 03:26:44;;;;;;;8.75;5.60;;;;;;;22.84;63.42;97099.50;5032491;28;20186;-64
2021/08/13 03:29:10;;;;;;;6.25;5.63;;;;;;;22.77;63.79;97102.56;5045065;28;20235;-64
2021/08/13 03:31:37;;;;;;;6.47;5.50;;;;;;;22.69;63.86;97092.53;5035240;28;20721;-64
2021/08/13 03:34:05;;;;;;;8.13;5.82;;;;;;;22.68;63.93;97090.94;5039809;28;20215;-64
2021/08/13 03:36:30;;;;;;;6.38;5.70;;;;;;;22.65;63.75;97067.50;5037908;28;20183;-64
2021/08/13 03:38:56;;;;;;;8.77;6.15;;;;;;;22.61;64.21;97084.41;5037071;28;20690;-64
2021/08/13 03:41:21;;;;;;;7.18;6.13;;;;;;;22.43;64.79;97087.94;5042009;28;20233;-65
2021/08/13 03:43:47;;;;;;;7.15;6.10;;;;;;;22.20;65.38;97093.16;5040573;28;20261;-64
2021/08/13 03:46:12;;;;;;;9.57;5.82;;;;;;;22.29;65.39;97098.63;5032310;28;20199;-65
2021/08/13 03:48:38;;;;;;;10.07;5.78;;;;;;;22.42;65.25;97097.84;5030929;28;20647;-65
2021/08/13 03:51:03;;;;;;;8.02;6.35;;;;;;;22.41;65.13;97104.28;5031899;28;20178;-64
2021/08/13 03:53:29;;;;;;;7.07;6.28;;;;;;;22.50;65.04;97102.53;5041335;28;20187;-64
2021/08/13 03:55:54;;;;;;;7.18;6.15;;;;;;;22.52;64.94;97110.22;5042749;28;20564;-64
2021/08/13 03:58:20;;;;;;;9.00;5.78;;;;;;;22.35;64.84;97124.94;5035067;28;20293;-64
2021/08/13 04:00:45;;;;;;;6.45;5.40;;;;;;;22.28;66.14;97124.53;5039699;28;20322;-64
2021/08/13 04:03:10;;;;;;;7.20;6.13;;;;;;;22.19;66.72;97133.50;5040656;28;20279;-64
2021/08/13 04:05:36;;;;;;;9.07;5.72;;;;;;;22.05;67.36;97138.81;5037386;28;20175;-64
2021/08/13 04:08:01;;;;;;;7.05;5.60;;;;;;;22.03;67.14;97143.63;5039225;28;20762;-64
2021/08/13 04:10:26;;;;;;;8.70;5.57;;;;;;;22.13;67.00;97148.00;5044867;28;20201;-64
2021/08/13 04:12:52;;;;;;;8.43;6.18;;;;;;;22.29;66.51;97150.16;5031622;28;20187;-64
2021/08/13 04:15:17;;;;;;;8.75;5.35;;;;;;;21.91;67.76;97149.38;5032697;28;20217;-69
2021/08/13 04:17:43;;;;;;;10.68;5.82;;;;;;;21.96;67.60;97146.66;5039073;28;20208;-64
2021/08/13 04:20:09;;;;;;;6.20;5.40;;;;;;;21.87;68.14;97144.91;5043042;28;20317;-64
2021/08/13 04:22:34;;;;;;;10.45;5.95;;;;;;;21.77;68.67;97145.88;5032842;28;20198;-64
2021/08/13 04:25:00;;;;;;;10.30;5.85;;;;;;;21.96;67.95;97151.22;5042701;28;20260;-64
2021/08/13 04:27:25;;;;;;;7.75;5.63;;;;;;;22.05;67.31;97144.16;5037153;28;20190;-64
2021/08/13 04:29:51;;;;;;;7.68;5.93;;;;;;;22.13;67.57;97137.34;5040730;28;20198;-64
2021/08/13 04:32:17;;;;;;;8.40;6.25;;;;;;;22.04;67.97;97134.53;5033477;28;20197;-70
2021/08/13 04:34:42;;;;;;;8.43;5.47;;;;;;;22.20;67.57;97148.44;5035648;28;20190;-65
2021/08/13 04:37:08;;;;;;;8.48;6.07;;;;;;;22.22;67.56;97148.94;5041860;28;20178;-64
2021/08/13 04:39:33;;;;;;;7.93;5.60;;;;;;;22.32;66.94;97154.91;5033739;28;20845;-64
2021/08/13 04:41:58;;;;;;;8.80;5.80;;;;;;;22.39;66.65;97151.88;5042991;28;20198;-64
2021/08/13 04:44:24;;;;;;;7.55;6.07;;;;;;;22.31;67.30;97163.22;5041871;28;20200;-64
2021/08/13 04:46:49;;;;;;;7.18;5.93;;;;;;;22.35;67.00;97164.22;5042360;28;20216;-64
2021/08/13 04:49:16;;;;;;;6.88;5.85;;;;;;;22.42;67.06;97169.97;5052023;28;20635;-70
2021/08/13 04:51:42;;;;;;;8.23;6.28;;;;;;;22.49;66.44;97167.72;5040971;28;20190;-64
2021/08/13 04:54:08;;;;;;;7.65;5.75;;;;;;;22.32;66.64;97164.81;5039699;28;20242;-64
2021/08/13 04:56:33;;;;;;;6.88;5.63;;;;;;;22.39;66.44;97167.91;5037380;28;20191;-64
2021/08/13 04:58:59;;;;;;;6.40;5.70;;;;;;;22.46;66.33;97170.19;5038249;28;20286;-64
2021/08/13 05:01:24;;;;;;;9.18;6.63;;;;;;;22.49;66.24;97173.06;5049546;28;20639;-64
2021/08/13 05:03:49;;;;;;;7.28;5.80;;;;;;;22.53;66.88;97173.25;5037728;28;20194;-64
2021/08/13 05:06:18;;;;;;;6.75;5.80;;;;;;;22.60;66.23;97171.81;5052138;28;20178;-69
2021/08/13 05:08:44;;;;;;;8.60;5.72;;;;;;;22.63;66.46;97179.22;5035773;28;20247;-64
2021/08/13 05:11:09;;;;;;;8.93;6.68;;;;;;;22.56;66.08;97175.38;5034877;28;20601;-65
2021/08/13 05:13:35;;;;;;;5.90;5.30;;;;;;;22.63;65.99;97176.56;5049488;28;20182;-64
2021/08/13 05:16:00;;;;;;;7.22;5.78;;;;;;;22.68;66.06;97189.06;5036760;28;20185;-64
2021/08/13 05:18:25;;;;;;;7.75;5.32;;;;;;;22.72;65.84;97190.88;5045795;28;20286;-64
2021/08/13 05:20:51;;;;;;;10.70;6.72;;;;;;;22.73;65.59;97184.44;5045855;28;20847;-64
2021/08/13 05:23:16;;;;;;;8.20;6.10;;;;;;;22.77;65.19;97166.72;5038906;28;20229;-70
2021/08/13 05:25:41;;;;;;;7.45;6.03;;;;;;;22.87;64.99;97175.63;5035805;28;20198;-64
2021/08/13 05:28:07;;;;;;;8.40;6.57;;;;;;;22.93;64.79;97177.13;5048423;28;20543;-64
2021/08/13 05:30:32;;;;;;;7.53;5.82;;;;;;;23.08;64.16;97168.81;5033690;28;20632;-65
2021/08/13 05:32:58;;;;;;;7.80;6.18;;;;;;;23.38;63.52;97176.25;5042952;28;20588;-65
2021/08/13 05:35:23;;;;;;;7.63;6.03;;;;;;;23.66;63.41;97173.53;5033645;28;20182;-64
2021/08/13 05:37:49;;;;;;;7.32;5.90;;;;;;;23.99;61.89;97175.75;5041987;28;20212;-65
2021/08/13 05:40:14;;;;;;;6.75;5.45;;;;;;;24.37;60.62;97178.09;5039759;28;20234;-64
2021/08/13 05:42:39;;;;;;;8.88;6.32;;;;;;;24.68;59.29;97181.59;5043609;28;20277;-61
2021/08/13 05:45:06;;;;;;;7.32;6.20;;;;;;;24.54;59.78;97180.88;5040487;28;20183;-64
2021/08/13 05:47:33;;;;;;;7.40;6.32;;;;;;;24.10;61.25;97167.47;5048592;28;20190;-60
2021/08/13 05:49:59;;;;;;;8.60;6.63;;;;;;;24.10;61.43;97173.63;5022498;28;20184;-60
2021/08/13 05:52:24;;;;;;;8.55;5.93;;;;;;;24.56;60.17;97178.69;5042833;28;20584;-62
2021/08/13 05:54:50;;;;;;;11.10;6.47;;;;;;;24.74;60.32;97174.97;5040948;28;20269;-62
2021/08/13 05:57:15;;;;;;;8.02;6.03;;;;;;;24.90;60.41;97178.09;5039308;28;20232;-63
2021/08/13 05:59:40;;;;;;;8.30;5.90;;;;;;;25.23;58.94;97181.22;5035840;28;20194;-60
2021/08/13 06:02:06;;;;;;;7.00;5.78;;;;;;;25.50;58.00;97175.63;5024576;28;20190;-60
2021/08/13 06:04:31;;;;;;;10.82;6.30;;;;;;;25.99;57.06;97177.13;5047231;28;20631;-60
2021/08/13 06:06:56;;;;;;;6.78;5.38;;;;;;;26.24;55.82;97172.88;5048197;28;20187;-60
2021/08/13 06:09:22;;;;;;;6.63;5.90;;;;;;;26.48;55.22;97172.34;5050079;28;20655;-60
2021/08/13 06:11:47;;;;;;;7.72;6.57;;;;;;;26.68;55.25;97173.59;5046661;28;20193;-59
2021/08/13 06:14:12;;;;;;;6.20;5.57;;;;;;;26.91;54.21;97172.28;5038854;28;20307;-60
2021/08/13 06:16:38;;;;;;;9.07;5.80;;;;;;;27.07;53.67;97172.53;5045576;28;20188;-62
2021/08/13 06:19:04;;;;;;;6.75;5.22;;;;;;;27.22;53.80;97175.47;5045141;28;20212;-60
2021/08/13 06:21:30;;;;;;;7.85;5.40;;;;;;;27.32;52.96;97182.38;5035772;28;20197;-61
2021/08/13 06:23:56;;;;;;;6.57;5.32;;;;;;;27.49;51.97;97184.97;5036493;28;20240;-61
2021/08/13 06:26:21;;;;;;;7.28;5.70;;;;;;;27.69;51.16;97189.66;5045195;28;20186;-61
2021/08/13 06:28:47;;;;;;;11.52;5.88;;;;;;;27.26;51.47;97197.94;5040774;28;20318;-60
2021/08/13 06:31:12;;;;;;;8.32;5.60;;;;;;;27.05;52.43;97207.84;5048592;28;20200;-60
2021/08/13 06:33:38;;;;;;;7.13;5.45;;;;;;;27.45;51.75;97200.22;5047222;28;20238;-60
2021/08/13 06:36:03;;;;;;;6.03;5.43;;;;;;;27.86;50.75;97196.03;5036819;28;20182;-60
2021/08/13 06:38:28;;;;;;;6.28;5.35;;;;;;;28.27;49.61;97187.94;5034403;28;20222;-61
2021/08/13 06:40:54;;;;;;;5.63;4.75;;;;;;;28.43;48.93;97191.59;5036549;28;20222;-60
2021/08/13 06:43:19;;;;;;;8.15;5.40;;;;;;;28.82;48.16;97190.28;5045776;28;20583;-62
2021/08/13 06:45:45;;;;;;;6.13;5.18;;;;;;;28.93;48.15;97194.13;5041876;28;20187;-60
2021/08/13 06:48:11;;;;;;;8.57;5.90;;;;;;;28.94;50.09;97200.31;5047012;28;20265;-61
2021/08/13 06:50:36;;;;;;;8.73;5.25;;;;;;;28.67;49.26;97195.50;5047418;28;20189;-60
2021/08/13 06:53:02;;;;;;;7.53;5.43;;;;;;;28.70;49.20;97197.56;5042451;28;20190;-60
2021/08/13 06:55:27;;;;;;;7.50;4.68;;;;;;;28.58;49.29;97201.00;5035662;28;20186;-62
2021/08/13 06:57:53;;;;;;;12.27;5.53;;;;;;;28.39;49.57;97198.78;5032563;28;20202;-61
2021/08/13 07:00:18;;;;;;;5.28;4.80;;;;;;;28.45;49.57;97202.06;5036747;28;20193;-67
2021/08/13 07:02:47;;;;;;;6.60;5.10;;;;;;;27.85;53.68;97213.31;5039652;28;21716;-61
2021/08/13 07:05:14;;;;;;;4.80;4.40;;;;;;;28.06;52.90;97214.91;5042735;28;20190;-62
2021/08/13 07:07:40;;;;;;;6.15;5.13;;;;;;;28.37;50.47;97214.50;5032782;28;20389;-62
2021/08/13 07:10:08;;;;;;;5.25;4.50;;;;;;;28.30;50.76;97208.09;5042413;28;20642;-62
2021/08/13 07:12:34;;;;;;;6.28;4.80;;;;;;;28.39;50.18;97208.78;5041191;28;20280;-62
2021/08/13 07:15:00;;;;;;;9.68;5.35;;;;;;;28.61;49.60;97210.31;5045168;28;20204;-61
2021/08/13 07:17:25;;;;;;;8.07;5.97;;;;;;;28.75;49.30;97210.88;5037074;28;20640;-62
2021/08/13 07:19:51;;;;;;;5.00;4.30;;;;;;;29.04;48.19;97210.69;5045718;28;20667;-62
2021/08/13 07:22:16;;;;;;;5.88;4.50;;;;;;;29.36;47.92;97221.78;5020973;28;20189;-62
2021/08/13 07:24:41;;;;;;;8.35;5.22;;;;;;;29.32;47.06;97227.03;5038879;28;20244;-61
2021/08/13 07:27:07;;;;;;;7.18;4.50;;;;;;;29.04;48.28;97221.47;5043108;28;20191;-61
2021/08/13 07:29:32;;;;;;;10.77;4.82;;;;;;;29.15;47.62;97222.63;5034500;28;20244;-63
2021/08/13 07:31:58;;;;;;;5.45;4.20;;;;;;;28.65;48.74;97227.41;5049774;28;20232;-62
2021/08/13 07:34:23;;;;;;;6.18;5.28;;;;;;;28.89;50.48;97231.03;5018738;28;20185;-64
2021/08/13 07:36:49;;;;;;;9.05;4.50;;;;;;;29.01;48.42;97215.97;5034152;28;20200;-64
2021/08/13 07:39:14;;;;;;;5.15;4.28;;;;;;;29.12;47.46;97220.59;5046053;28;20229;-61
2021/08/13 07:41:40;;;;;;;7.30;3.95;;;;;;;29.29;48.17;97216.91;5034190;28;20240;-61
2021/08/13 07:44:05;;;;;;;7.60;5.10;;;;;;;29.17;50.36;97222.28;5041383;28;20186;-61
2021/08/13 07:46:30;;;;;;;6.15;5.28;;;;;;;29.37;50.77;97226.06;5038771;28;20774;-62
2021/08/13 07:48:56;;;;;;;9.38;6.70;;;;;;;28.63;53.67;97227.78;5042771;28;20190;-62
2021/08/13 07:51:21;;;;;;;7.28;6.18;;;;;;;28.56;54.15;97226.72;5036067;28;20182;-66
2021/08/13 07:53:47;;;;;;;7.32;6.35;;;;;;;28.06;55.57;97232.97;5046860;28;20186;-61
2021/08/13 07:56:12;;;;;;;7.50;6.78;;;;;;;27.69;56.68;97232.75;5031990;28;20549;-62
2021/08/13 07:58:38;;;;;;;7.88;7.07;;;;;;;27.69;56.86;97232.75;5038738;28;20241;-61
2021/08/13 08:01:03;;;;;;;8.90;7.18;;;;;;;27.40;57.41;97234.63;5038486;28;20270;-61
2021/08/13 08:03:28;;;;;;;7.32;6.20;;;;;;;27.44;57.40;97240.94;5039018;28;20221;-62
2021/08/13 08:05:54;;;;;;;11.13;7.00;;;;;;;27.20;57.50;97234.22;5045566;28;20209;-63
2021/08/13 08:08:19;;;;;;;9.00;6.47;;;;;;;27.56;56.98;97244.53;5032960;28;20186;-61
2021/08/13 08:10:47;;;;;;;10.98;6.63;;;;;;;27.78;56.27;97240.78;5040564;28;20200;-61
2021/08/13 08:13:17;;;;;;;8.52;6.85;;;;;;;27.32;56.93;97241.63;5036972;28;20663;-61
2021/08/13 08:15:45;;;;;;;6.88;5.65;;;;;;;27.91;56.14;97244.34;5041280;28;20627;-61
2021/08/13 08:18:11;;;;;;;7.53;6.07;;;;;;;27.42;56.66;97249.31;5043395;28;20662;-61
2021/08/13 08:20:38;;;;;;;7.82;6.03;;;;;;;27.25;57.37;97252.13;5041450;28;20186;-61
2021/08/13 08:23:03;;;;;;;7.28;5.80;;;;;;;27.56;56.03;97252.63;5032436;28;20281;-61
2021/08/13 08:25:29;;;;;;;8.80;6.75;;;;;;;27.53;56.61;97257.88;5044219;28;20260;-62
2021/08/13 08:27:55;;;;;;;8.93;6.38;;;;;;;27.67;55.56;97261.13;5039027;28;20604;-62
2021/08/13 08:30:20;;;;;;;7.55;6.00;;;;;;;27.80;54.92;97251.25;5045858;28;20189;-62
2021/08/13 08:32:46;;;;;;;7.50;6.70;;;;;;;28.00;54.61;97266.63;5036198;28;20654;-62
2021/08/13 08:35:11;;;;;;;9.15;6.60;;;;;;;27.65;55.70;97271.44;5036027;28;20202;-62
2021/08/13 08:38:03;;;;;;;7.55;6.22;;;;;;;27.56;55.93;97268.78;5041252;28;20212;-61
2021/08/13 08:40:35;;;;;;;9.70;6.55;;;;;;;27.72;55.02;97258.25;5044673;28;20226;-64
2021/08/13 08:43:03;;;;;;;10.73;6.28;;;;;;;27.63;55.32;97271.78;5028037;28;20181;-61
2021/08/13 08:45:31;;;;;;;8.23;6.13;;;;;;;27.63;54.71;97271.78;5047440;28;20544;-63
2021/08/13 08:48:01;;;;;;;8.80;6.35;;;;;;;27.46;56.04;97265.63;5047493;28;20190;-61
2021/08/13 08:50:28;;;;;;;9.98;6.28;;;;;;;27.58;54.78;97263.09;5041966;28;20197;-62
2021/08/13 08:52:56;;;;;;;8.57;5.90;;;;;;;27.71;54.51;97264.75;5031197;28;20185;-61
2021/08/13 08:55:22;;;;;;;7.35;5.60;;;;;;;27.70;54.97;97263.16;5036874;28;20186;-62
2021/08/13 08:57:47;;;;;;;7.43;5.47;;;;;;;27.99;54.10;97265.06;5042678;28;20209;-61
2021/08/13 09:00:15;;;;;;;8.90;6.32;;;;;;;27.99;54.23;97265.06;5038803;28;20190;-62
2021/08/13 09:02:44;;;;;;;7.47;5.70;;;;;;;27.70;54.55;97268.53;5042527;28;20276;-62
2021/08/13 09:05:11;;;;;;;6.65;5.72;;;;;;;27.42;55.14;97264.72;5043508;28;20235;-62
2021/08/13 09:07:37;;;;;;;7.97;6.07;;;;;;;27.55;55.33;97272.59;5044590;28;20183;-62
2021/08/13 09:10:04;;;;;;;9.70;6.03;;;;;;;27.80;54.19;97267.41;5035185;28;20248;-61
2021/08/13 09:12:31;;;;;;;8.07;6.20;;;;;;;27.67;55.09;97277.28;5033380;28;20244;-63
2021/08/13 09:14:57;;;;;;;8.63;6.50;;;;;;;27.85;54.31;97262.63;5034700;28;20190;-64
2021/08/13 09:17:33;;;;;;;9.52;6.43;;;;;;;27.81;54.33;97277.84;5043787;28;20186;-61
2021/08/13 09:19:59;;;;;;;8.43;6.40;;;;;;;27.74;54.39;97279.47;5042965;28;20182;-60
2021/08/13 09:22:25;;;;;;;10.70;6.68;;;;;;;27.74;54.59;97276.78;5034423;28;20193;-70
2021/08/13 09:24:55;;;;;;;10.93;6.25;;;;;;;27.78;54.16;97272.31;5035234;28;20534;-62
2021/08/13 09:27:29;;;;;;;7.95;6.18;;;;;;;27.85;54.64;97268.00;5032154;28;20190;-61
2021/08/13 09:30:08;;;;;;;8.70;6.35;;;;;;;27.77;54.07;97274.22;5043336;28;20182;-63
2021/08/13 09:32:34;;;;;;;7.72;6.07;;;;;;;27.93;54.39;97279.84;5039763;28;20193;-62
2021/08/13 09:35:01;;;;;;;7.80;6.45;;;;;;;27.70;54.69;97274.72;5039606;28;20547;-62
2021/08/13 09:37:26;;;;;;;8.70;6.53;;;;;;;27.99;54.48;97278.53;5034096;28;20194;-66
2021/08/13 09:39:56;;;;;;;7.45;5.53;;;;;;;27.91;53.84;97268.59;5043398;28;20218;-62
2021/08/13 09:42:31;;;;;;;7.15;5.90;;;;;;;28.58;52.84;97267.66;5039558;28;20210;-62
2021/08/13 09:45:01;;;;;;;7.22;5.43;;;;;;;28.43;52.62;97269.81;5033270;28;20206;-62
2021/08/13 09:47:43;;;;;;;10.52;5.95;;;;;;;28.49;53.16;97282.00;5047022;28;20566;-67
2021/08/13 09:50:10;;;;;;;9.63;5.85;;;;;;;28.10;53.63;97275.13;5029085;28;20186;-61
2021/08/13 09:52:36;;;;;;;9.50;6.63;;;;;;;28.33;53.35;97277.53;5042833;28;20198;-61
2021/08/13 09:55:06;;;;;;;9.70;6.07;;;;;;;28.17;52.80;97281.94;5046527;28;20179;-63
2021/08/13 09:57:48;;;;;;;8.68;6.05;;;;;;;28.13;53.91;97279.13;5047264;28;20185;-62
2021/08/13 10:00:15;;;;;;;9.35;6.72;;;;;;;28.23;53.02;97278.72;5038080;28;20194;-62
2021/08/13 10:02:42;;;;;;;6.93;5.50;;;;;;;28.17;53.32;97273.84;5032904;28;20189;-62
2021/08/13 10:05:22;;;;;;;10.50;6.60;;;;;;;28.23;52.99;97265.25;5033541;28;20246;-62
2021/08/13 10:07:49;;;;;;;8.20;5.95;;;;;;;28.22;53.41;97260.16;5031337;28;20196;-62
2021/08/13 10:10:15;;;;;;;7.82;5.55;;;;;;;28.51;52.73;97262.78;5037037;28;20195;-62
2021/08/13 10:12:45;;;;;;;7.20;5.68;;;;;;;28.58;51.90;97264.97;5042334;28;20182;-62
2021/08/13 10:15:26;;;;;;;9.70;6.20;;;;;;;28.84;51.73;97266.31;5048417;28;20544;-62
2021/08/13 10:17:51;;;;;;;9.13;5.70;;;;;;;28.99;51.29;97266.78;5040633;28;20210;-62
2021/08/13 10:20:17;;;;;;;10.77;5.45;;;;;;;29.42;50.27;97275.25;5049581;28;20189;-62
2021/08/13 10:22:43;;;;;;;6.97;5.63;;;;;;;29.43;49.68;97266.00;5040905;28;20635;-62
2021/08/13 10:25:10;;;;;;;9.02;5.40;;;;;;;29.31;50.46;97276.78;5044777;28;20179;-61
2021/08/13 10:27:36;;;;;;;11.48;5.85;;;;;;;29.39;50.76;97262.41;5038891;28;20182;-62
2021/08/13 10:30:02;;;;;;;9.13;6.20;;;;;;;29.23;50.76;97262.25;5048221;28;20209;-62
2021/08/13 10:32:28;;;;;;;7.22;5.88;;;;;;;28.51;52.47;97260.09;5046176;28;20217;-67
2021/08/13 10:34:54;;;;;;;6.82;5.82;;;;;;;28.45;53.02;97259.50;5043699;28;20189;-62
2021/08/13 10:37:24;;;;;;;9.38;6.35;;;;;;;28.28;54.17;97267.72;5033624;28;20217;-62
2021/08/13 10:39:52;;;;;;;8.93;5.93;;;;;;;28.37;53.16;97268.44;5037145;28;20209;-62
2021/08/13 10:42:21;;;;;;;13.50;6.10;;;;;;;28.91;52.70;97268.47;5050544;28;20745;-62
2021/08/13 10:44:55;;;;;;;7.05;5.60;;;;;;;28.76;52.25;97269.88;5035598;28;20185;-62
2021/08/13 10:47:27;;;;;;;8.45;6.22;;;;;;;28.53;52.22;97274.81;5048770;28;20178;-63
2021/08/13 10:49:54;;;;;;;11.15;5.97;;;;;;;28.42;52.90;97275.56;5038863;28;20185;-62
2021/08/13 10:52:32;;;;;;;8.52;5.90;;;;;;;28.35;53.23;97273.41;5038375;28;20197;-62
2021/08/13 10:54:57;;;;;;;9.73;6.25;;;;;;;28.09;53.83;97275.44;5041932;28;20171;-62
2021/08/13 10:57:48;;;;;;;7.47;6.07;;;;;;;28.54;53.42;97271.00;5045245;28;20185;-62
2021/08/13 11:00:13;;;;;;;7.03;5.43;;;;;;;28.38;53.31;97270.03;5033905;28;20253;-62
2021/08/13 11:02:39;;;;;;;8.30;5.82;;;;;;;28.10;54.33;97267.03;5039096;28;20186;-62
2021/08/13 11:05:05;;;;;;;8.10;6.05;;;;;;;28.13;53.83;97265.63;5042367;28;20308;-62
2021/08/13 11:07:55;;;;;;;9.75;6.20;;;;;;;28.19;54.08;97258.94;5039917;28;20412;-66
2021/08/13 11:10:47;;;;;;;7.75;6.20;;;;;;;28.19;53.63;97261.63;5045444;28;20671;-62
2021/08/13 11:13:14;;;;;;;10.23;5.93;;;;;;;28.18;54.63;97264.66;5029081;28;20210;-61
2021/08/13 11:15:40;;;;;;;7.30;5.50;;;;;;;28.19;53.62;97263.53;5031438;28;20182;-62
2021/08/13 11:18:29;;;;;;;6.53;5.45;;;;;;;27.99;53.99;97259.66;5032086;28;20198;-62
2021/08/13 11:20:55;;;;;;;6.97;5.93;;;;;;;28.11;53.95;97257.84;5035788;28;20209;-62
2021/08/13 11:23:21;;;;;;;5.97;5.38;;;;;;;28.20;53.11;97260.50;5036012;28;20221;-62
2021/08/13 11:25:50;;;;;;;8.40;6.10;;;;;;;28.35;53.11;97245.63;5043176;28;20198;-62
2021/08/13 11:28:17;;;;;;;6.43;5.68;;;;;;;28.38;53.14;97248.44;5041231;28;20198;-61
2021/08/13 11:30:43;;;;;;;7.13;5.93;;;;;;;28.75;52.47;97259.44;5033891;28;20593;-62
2021/08/13 11:33:27;;;;;;;7.93;6.35;;;;;;;28.79;52.41;97253.03;5050068;28;20182;-62